sensor_id;sensor_type;location;lat;lon;timestamp;pressure;altitude;pressure_sealevel;temperature
19644;BMP180;9970;-36.854;174.870;2022-12-26T00:00:58;101434.00;;;25.10
19644;BMP180;9970;-36.854;174.870;2022-12-26T00:03:27;101432.00;;;25.10
19644;BMP180;9970;-36.854;174.870;2022-12-26T00:06:00;101432.00;;;25.10
19644;BMP180;9970;-36.854;174.870;2022-12-26T00:08:33;101436.00;;;25.20
19644;BMP180;9970;-36.854;174.870;2022-12-26T00:11:06;101431.00;;;25.20
19644;BMP180;9970;-36.854;174.870;2022-12-26T00:13:40;101428.00;;;25.30
19644;BMP180;9970;-36.854;174.870;2022-12-26T00:16:14;101430.00;;;25.30
19644;BMP180;9970;-36.854;174.870;2022-12-26T00:18:48;101428.00;;;25.30
19644;BMP180;9970;-36.854;174.870;2022-12-26T00:21:22;101425.00;;;25.30
19644;BMP180;9970;-36.854;174.870;2022-12-26T00:23:56;101431.00;;;25.30
19644;BMP180;9970;-36.854;174.870;2022-12-26T00:26:31;101423.00;;;25.30
19644;BMP180;9970;-36.854;174.870;2022-12-26T00:29:04;101426.00;;;25.30
19644;BMP180;9970;-36.854;174.870;2022-12-26T00:31:37;101426.00;;;25.30
19644;BMP180;9970;-36.854;174.870;2022-12-26T00:34:10;101420.00;;;25.30
19644;BMP180;9970;-36.854;174.870;2022-12-26T00:36:51;101420.00;;;25.30
19644;BMP180;9970;-36.854;174.870;2022-12-26T00:39:24;101417.00;;;25.30
19644;BMP180;9970;-36.854;174.870;2022-12-26T00:41:57;101418.00;;;25.40
19644;BMP180;9970;-36.854;174.870;2022-12-26T00:44:30;101421.00;;;25.40
19644;BMP180;9970;-36.854;174.870;2022-12-26T00:47:02;101418.00;;;25.40
19644;BMP180;9970;-36.854;174.870;2022-12-26T00:49:36;101412.00;;;25.30
19644;BMP180;9970;-36.854;174.870;2022-12-26T00:52:10;101418.00;;;25.20
19644;BMP180;9970;-36.854;174.870;2022-12-26T00:54:43;101427.00;;;25.10
19644;BMP180;9970;-36.854;174.870;2022-12-26T00:57:16;101414.00;;;25.10
19644;BMP180;9970;-36.854;174.870;2022-12-26T00:59:48;101419.00;;;25.10
19644;BMP180;9970;-36.854;174.870;2022-12-26T01:02:21;101416.00;;;25.20
19644;BMP180;9970;-36.854;174.870;2022-12-26T01:05:11;101412.00;;;25.30
19644;BMP180;9970;-36.854;174.870;2022-12-26T01:07:43;101413.00;;;25.30
19644;BMP180;9970;-36.854;174.870;2022-12-26T01:10:17;101416.00;;;25.30
19644;BMP180;9970;-36.854;174.870;2022-12-26T01:12:51;101405.00;;;25.20
19644;BMP180;9970;-36.854;174.870;2022-12-26T01:15:24;101399.00;;;25.20
19644;BMP180;9970;-36.854;174.870;2022-12-26T01:17:58;101406.00;;;25.20
19644;BMP180;9970;-36.854;174.870;2022-12-26T01:20:31;101413.00;;;25.20
19644;BMP180;9970;-36.854;174.870;2022-12-26T01:23:04;101407.00;;;25.20
19644;BMP180;9970;-36.854;174.870;2022-12-26T01:25:38;101404.00;;;25.10
19644;BMP180;9970;-36.854;174.870;2022-12-26T01:28:12;101413.00;;;25.10
19644;BMP180;9970;-36.854;174.870;2022-12-26T01:30:45;101412.00;;;25.00
19644;BMP180;9970;-36.854;174.870;2022-12-26T01:33:18;101410.00;;;25.00
19644;BMP180;9970;-36.854;174.870;2022-12-26T01:35:51;101405.00;;;24.90
19644;BMP180;9970;-36.854;174.870;2022-12-26T01:38:24;101415.00;;;24.90
19644;BMP180;9970;-36.854;174.870;2022-12-26T01:40:57;101397.00;;;24.90
19644;BMP180;9970;-36.854;174.870;2022-12-26T01:44:01;101403.00;;;24.80
19644;BMP180;9970;-36.854;174.870;2022-12-26T01:46:44;101418.00;;;24.80
19644;BMP180;9970;-36.854;174.870;2022-12-26T01:49:31;101426.00;;;24.70
19644;BMP180;9970;-36.854;174.870;2022-12-26T01:52:06;101427.00;;;24.70
19644;BMP180;9970;-36.854;174.870;2022-12-26T01:54:40;101423.00;;;24.60
19644;BMP180;9970;-36.854;174.870;2022-12-26T01:57:20;101421.00;;;24.60
19644;BMP180;9970;-36.854;174.870;2022-12-26T01:59:49;101413.00;;;24.50
19644;BMP180;9970;-36.854;174.870;2022-12-26T02:02:23;101413.00;;;24.50
19644;BMP180;9970;-36.854;174.870;2022-12-26T02:04:58;101411.00;;;24.40
19644;BMP180;9970;-36.854;174.870;2022-12-26T02:07:48;101412.00;;;24.40
19644;BMP180;9970;-36.854;174.870;2022-12-26T02:10:22;101423.00;;;24.30
19644;BMP180;9970;-36.854;174.870;2022-12-26T02:12:58;101429.00;;;24.30
19644;BMP180;9970;-36.854;174.870;2022-12-26T02:15:31;101417.00;;;24.20
19644;BMP180;9970;-36.854;174.870;2022-12-26T02:18:04;101400.00;;;24.20
19644;BMP180;9970;-36.854;174.870;2022-12-26T02:20:44;101397.00;;;24.10
19644;BMP180;9970;-36.854;174.870;2022-12-26T02:35:05;101406.00;;;24.00
19644;BMP180;9970;-36.854;174.870;2022-12-26T02:37:53;101410.00;;;24.00
19644;BMP180;9970;-36.854;174.870;2022-12-26T02:43:25;101395.00;;;24.00
19644;BMP180;9970;-36.854;174.870;2022-12-26T02:46:21;101399.00;;;23.90
19644;BMP180;9970;-36.854;174.870;2022-12-26T02:49:26;101393.00;;;23.90
19644;BMP180;9970;-36.854;174.870;2022-12-26T02:52:01;101395.00;;;23.80
19644;BMP180;9970;-36.854;174.870;2022-12-26T02:54:57;101398.00;;;23.80
19644;BMP180;9970;-36.854;174.870;2022-12-26T03:00:37;101405.00;;;23.80
19644;BMP180;9970;-36.854;174.870;2022-12-26T03:03:29;101409.00;;;23.80
19644;BMP180;9970;-36.854;174.870;2022-12-26T03:06:24;101394.00;;;23.80
19644;BMP180;9970;-36.854;174.870;2022-12-26T03:09:17;101408.00;;;23.70
19644;BMP180;9970;-36.854;174.870;2022-12-26T03:15:27;101418.00;;;23.70
19644;BMP180;9970;-36.854;174.870;2022-12-26T03:18:02;101413.00;;;23.70
19644;BMP180;9970;-36.854;174.870;2022-12-26T03:20:37;101421.00;;;23.70
19644;BMP180;9970;-36.854;174.870;2022-12-26T03:23:11;101408.00;;;23.70
19644;BMP180;9970;-36.854;174.870;2022-12-26T03:25:55;101411.00;;;23.70
19644;BMP180;9970;-36.854;174.870;2022-12-26T03:28:46;101405.00;;;23.60
19644;BMP180;9970;-36.854;174.870;2022-12-26T03:31:19;101402.00;;;23.60
19644;BMP180;9970;-36.854;174.870;2022-12-26T03:34:03;101404.00;;;23.60
19644;BMP180;9970;-36.854;174.870;2022-12-26T03:46:12;101390.00;;;23.50
19644;BMP180;9970;-36.854;174.870;2022-12-26T03:49:11;101382.00;;;23.50
19644;BMP180;9970;-36.854;174.870;2022-12-26T03:52:13;101382.00;;;23.50
19644;BMP180;9970;-36.854;174.870;2022-12-26T03:58:25;101377.00;;;23.60
19644;BMP180;9970;-36.854;174.870;2022-12-26T04:01:16;101375.00;;;23.50
19644;BMP180;9970;-36.854;174.870;2022-12-26T04:04:08;101355.00;;;23.50
19644;BMP180;9970;-36.854;174.870;2022-12-26T04:07:13;101350.00;;;23.50
19644;BMP180;9970;-36.854;174.870;2022-12-26T04:10:05;101358.00;;;23.50
19644;BMP180;9970;-36.854;174.870;2022-12-26T04:12:55;101343.00;;;23.50
19644;BMP180;9970;-36.854;174.870;2022-12-26T04:18:44;101326.00;;;23.60
19644;BMP180;9970;-36.854;174.870;2022-12-26T04:21:45;101339.00;;;23.50
19644;BMP180;9970;-36.854;174.870;2022-12-26T04:24:36;101344.00;;;23.50
19644;BMP180;9970;-36.854;174.870;2022-12-26T04:27:26;101355.00;;;23.40
19644;BMP180;9970;-36.854;174.870;2022-12-26T04:30:17;101340.00;;;23.40
19644;BMP180;9970;-36.854;174.870;2022-12-26T04:33:19;101345.00;;;23.40
19644;BMP180;9970;-36.854;174.870;2022-12-26T04:36:10;101358.00;;;23.40
19644;BMP180;9970;-36.854;174.870;2022-12-26T04:39:01;101355.00;;;23.40
19644;BMP180;9970;-36.854;174.870;2022-12-26T04:41:58;101352.00;;;23.40
19644;BMP180;9970;-36.854;174.870;2022-12-26T04:44:50;101361.00;;;23.40
19644;BMP180;9970;-36.854;174.870;2022-12-26T04:47:23;101363.00;;;23.30
19644;BMP180;9970;-36.854;174.870;2022-12-26T04:49:56;101364.00;;;23.30
19644;BMP180;9970;-36.854;174.870;2022-12-26T04:52:45;101365.00;;;23.30
19644;BMP180;9970;-36.854;174.870;2022-12-26T04:55:32;101364.00;;;23.30
19644;BMP180;9970;-36.854;174.870;2022-12-26T04:58:06;101374.00;;;23.30
19644;BMP180;9970;-36.854;174.870;2022-12-26T05:00:39;101375.00;;;23.30
19644;BMP180;9970;-36.854;174.870;2022-12-26T05:03:13;101380.00;;;23.30
19644;BMP180;9970;-36.854;174.870;2022-12-26T05:06:03;101384.00;;;23.30
19644;BMP180;9970;-36.854;174.870;2022-12-26T05:08:57;101376.00;;;23.30
19644;BMP180;9970;-36.854;174.870;2022-12-26T05:11:48;101369.00;;;23.30
19644;BMP180;9970;-36.854;174.870;2022-12-26T05:14:21;101362.00;;;23.30
19644;BMP180;9970;-36.854;174.870;2022-12-26T05:16:53;101371.00;;;23.30
19644;BMP180;9970;-36.854;174.870;2022-12-26T05:19:44;101375.00;;;23.20
19644;BMP180;9970;-36.854;174.870;2022-12-26T05:22:40;101385.00;;;23.20
19644;BMP180;9970;-36.854;174.870;2022-12-26T05:25:31;101389.00;;;23.10
19644;BMP180;9970;-36.854;174.870;2022-12-26T05:28:21;101380.00;;;23.10
19644;BMP180;9970;-36.854;174.870;2022-12-26T05:31:17;101385.00;;;23.10
19644;BMP180;9970;-36.854;174.870;2022-12-26T05:33:58;101380.00;;;23.00
19644;BMP180;9970;-36.854;174.870;2022-12-26T05:36:48;101393.00;;;23.00
19644;BMP180;9970;-36.854;174.870;2022-12-26T05:39:21;101390.00;;;22.90
19644;BMP180;9970;-36.854;174.870;2022-12-26T05:41:54;101388.00;;;22.90
19644;BMP180;9970;-36.854;174.870;2022-12-26T05:44:27;101381.00;;;23.00
19644;BMP180;9970;-36.854;174.870;2022-12-26T05:47:00;101382.00;;;22.90
19644;BMP180;9970;-36.854;174.870;2022-12-26T05:49:34;101384.00;;;22.90
19644;BMP180;9970;-36.854;174.870;2022-12-26T05:52:06;101388.00;;;22.90
19644;BMP180;9970;-36.854;174.870;2022-12-26T05:54:39;101399.00;;;22.90
19644;BMP180;9970;-36.854;174.870;2022-12-26T05:57:12;101411.00;;;22.90
19644;BMP180;9970;-36.854;174.870;2022-12-26T05:59:45;101420.00;;;22.80
19644;BMP180;9970;-36.854;174.870;2022-12-26T06:02:18;101416.00;;;22.80
19644;BMP180;9970;-36.854;174.870;2022-12-26T06:04:51;101421.00;;;22.80
19644;BMP180;9970;-36.854;174.870;2022-12-26T06:07:24;101410.00;;;22.80
19644;BMP180;9970;-36.854;174.870;2022-12-26T06:09:58;101418.00;;;22.80
19644;BMP180;9970;-36.854;174.870;2022-12-26T06:12:35;101429.00;;;22.80
19644;BMP180;9970;-36.854;174.870;2022-12-26T06:15:10;101436.00;;;22.80
19644;BMP180;9970;-36.854;174.870;2022-12-26T06:17:43;101434.00;;;22.80
19644;BMP180;9970;-36.854;174.870;2022-12-26T06:20:21;101430.00;;;22.70
19644;BMP180;9970;-36.854;174.870;2022-12-26T06:22:54;101431.00;;;22.70
19644;BMP180;9970;-36.854;174.870;2022-12-26T06:25:29;101422.00;;;22.70
19644;BMP180;9970;-36.854;174.870;2022-12-26T06:28:02;101434.00;;;22.70
19644;BMP180;9970;-36.854;174.870;2022-12-26T06:30:35;101432.00;;;22.70
19644;BMP180;9970;-36.854;174.870;2022-12-26T06:33:08;101431.00;;;22.70
19644;BMP180;9970;-36.854;174.870;2022-12-26T06:36:02;101428.00;;;22.70
19644;BMP180;9970;-36.854;174.870;2022-12-26T06:38:40;101429.00;;;22.70
19644;BMP180;9970;-36.854;174.870;2022-12-26T06:41:15;101440.00;;;22.70
19644;BMP180;9970;-36.854;174.870;2022-12-26T06:43:48;101437.00;;;22.60
19644;BMP180;9970;-36.854;174.870;2022-12-26T06:46:22;101440.00;;;22.60
19644;BMP180;9970;-36.854;174.870;2022-12-26T06:48:56;101438.00;;;22.60
19644;BMP180;9970;-36.854;174.870;2022-12-26T06:51:29;101437.00;;;22.60
19644;BMP180;9970;-36.854;174.870;2022-12-26T06:54:02;101438.00;;;22.60
19644;BMP180;9970;-36.854;174.870;2022-12-26T06:56:35;101449.00;;;22.60
19644;BMP180;9970;-36.854;174.870;2022-12-26T06:59:09;101430.00;;;22.60
19644;BMP180;9970;-36.854;174.870;2022-12-26T07:01:42;101435.00;;;22.60
19644;BMP180;9970;-36.854;174.870;2022-12-26T07:04:15;101433.00;;;22.60
19644;BMP180;9970;-36.854;174.870;2022-12-26T07:06:48;101438.00;;;22.50
19644;BMP180;9970;-36.854;174.870;2022-12-26T07:09:22;101427.00;;;22.50
19644;BMP180;9970;-36.854;174.870;2022-12-26T07:11:55;101426.00;;;22.50
19644;BMP180;9970;-36.854;174.870;2022-12-26T07:14:29;101430.00;;;22.50
19644;BMP180;9970;-36.854;174.870;2022-12-26T07:17:02;101438.00;;;22.50
19644;BMP180;9970;-36.854;174.870;2022-12-26T07:19:35;101434.00;;;22.50
19644;BMP180;9970;-36.854;174.870;2022-12-26T07:22:08;101438.00;;;22.40
19644;BMP180;9970;-36.854;174.870;2022-12-26T07:24:41;101437.00;;;22.50
19644;BMP180;9970;-36.854;174.870;2022-12-26T07:27:14;101444.00;;;22.40
19644;BMP180;9970;-36.854;174.870;2022-12-26T07:29:47;101455.00;;;22.40
19644;BMP180;9970;-36.854;174.870;2022-12-26T07:32:20;101451.00;;;22.40
19644;BMP180;9970;-36.854;174.870;2022-12-26T07:34:53;101463.00;;;22.40
19644;BMP180;9970;-36.854;174.870;2022-12-26T07:37:26;101467.00;;;22.40
19644;BMP180;9970;-36.854;174.870;2022-12-26T07:39:59;101454.00;;;22.40
19644;BMP180;9970;-36.854;174.870;2022-12-26T07:42:32;101457.00;;;22.40
19644;BMP180;9970;-36.854;174.870;2022-12-26T07:45:05;101460.00;;;22.40
19644;BMP180;9970;-36.854;174.870;2022-12-26T07:47:38;101461.00;;;22.40
19644;BMP180;9970;-36.854;174.870;2022-12-26T07:50:11;101450.00;;;22.40
19644;BMP180;9970;-36.854;174.870;2022-12-26T07:52:46;101448.00;;;22.30
19644;BMP180;9970;-36.854;174.870;2022-12-26T07:55:20;101442.00;;;22.30
19644;BMP180;9970;-36.854;174.870;2022-12-26T07:57:52;101455.00;;;22.30
19644;BMP180;9970;-36.854;174.870;2022-12-26T08:00:25;101458.00;;;22.30
19644;BMP180;9970;-36.854;174.870;2022-12-26T08:02:58;101472.00;;;22.30
19644;BMP180;9970;-36.854;174.870;2022-12-26T08:05:32;101464.00;;;22.30
19644;BMP180;9970;-36.854;174.870;2022-12-26T08:08:05;101472.00;;;22.30
19644;BMP180;9970;-36.854;174.870;2022-12-26T08:10:38;101477.00;;;22.30
19644;BMP180;9970;-36.854;174.870;2022-12-26T08:13:11;101472.00;;;22.30
19644;BMP180;9970;-36.854;174.870;2022-12-26T08:15:44;101474.00;;;22.30
19644;BMP180;9970;-36.854;174.870;2022-12-26T08:18:18;101467.00;;;22.30
19644;BMP180;9970;-36.854;174.870;2022-12-26T08:21:11;101464.00;;;22.30
19644;BMP180;9970;-36.854;174.870;2022-12-26T08:23:45;101466.00;;;22.20
19644;BMP180;9970;-36.854;174.870;2022-12-26T08:26:24;101479.00;;;22.30
19644;BMP180;9970;-36.854;174.870;2022-12-26T08:28:57;101475.00;;;22.30
19644;BMP180;9970;-36.854;174.870;2022-12-26T08:31:30;101475.00;;;22.20
19644;BMP180;9970;-36.854;174.870;2022-12-26T08:34:07;101475.00;;;22.20
19644;BMP180;9970;-36.854;174.870;2022-12-26T08:36:40;101471.00;;;22.20
19644;BMP180;9970;-36.854;174.870;2022-12-26T08:39:14;101477.00;;;22.20
19644;BMP180;9970;-36.854;174.870;2022-12-26T08:41:47;101475.00;;;22.10
19644;BMP180;9970;-36.854;174.870;2022-12-26T08:44:20;101478.00;;;22.10
19644;BMP180;9970;-36.854;174.870;2022-12-26T08:46:54;101480.00;;;22.10
19644;BMP180;9970;-36.854;174.870;2022-12-26T08:49:27;101475.00;;;22.10
19644;BMP180;9970;-36.854;174.870;2022-12-26T08:52:00;101473.00;;;22.10
19644;BMP180;9970;-36.854;174.870;2022-12-26T08:54:33;101476.00;;;22.00
19644;BMP180;9970;-36.854;174.870;2022-12-26T08:57:07;101482.00;;;22.00
19644;BMP180;9970;-36.854;174.870;2022-12-26T08:59:40;101480.00;;;22.00
19644;BMP180;9970;-36.854;174.870;2022-12-26T09:02:16;101484.00;;;22.00
19644;BMP180;9970;-36.854;174.870;2022-12-26T09:04:47;101486.00;;;22.00
19644;BMP180;9970;-36.854;174.870;2022-12-26T09:07:21;101490.00;;;21.90
19644;BMP180;9970;-36.854;174.870;2022-12-26T09:09:55;101497.00;;;21.90
19644;BMP180;9970;-36.854;174.870;2022-12-26T09:12:27;101501.00;;;21.90
19644;BMP180;9970;-36.854;174.870;2022-12-26T09:15:01;101493.00;;;21.80
19644;BMP180;9970;-36.854;174.870;2022-12-26T09:17:34;101494.00;;;21.80
19644;BMP180;9970;-36.854;174.870;2022-12-26T09:20:08;101502.00;;;21.80
19644;BMP180;9970;-36.854;174.870;2022-12-26T09:22:41;101506.00;;;21.80
19644;BMP180;9970;-36.854;174.870;2022-12-26T09:25:24;101501.00;;;21.80
19644;BMP180;9970;-36.854;174.870;2022-12-26T09:27:57;101498.00;;;21.70
19644;BMP180;9970;-36.854;174.870;2022-12-26T09:30:30;101504.00;;;21.70
19644;BMP180;9970;-36.854;174.870;2022-12-26T09:33:04;101500.00;;;21.70
19644;BMP180;9970;-36.854;174.870;2022-12-26T09:35:41;101497.00;;;21.70
19644;BMP180;9970;-36.854;174.870;2022-12-26T09:38:14;101493.00;;;21.60
19644;BMP180;9970;-36.854;174.870;2022-12-26T09:43:36;101496.00;;;21.70
19644;BMP180;9970;-36.854;174.870;2022-12-26T09:46:12;101491.00;;;21.70
19644;BMP180;9970;-36.854;174.870;2022-12-26T09:51:39;101493.00;;;21.60
19644;BMP180;9970;-36.854;174.870;2022-12-26T09:54:14;101498.00;;;21.60
19644;BMP180;9970;-36.854;174.870;2022-12-26T09:56:48;101501.00;;;21.50
19644;BMP180;9970;-36.854;174.870;2022-12-26T09:59:24;101504.00;;;21.50
19644;BMP180;9970;-36.854;174.870;2022-12-26T10:01:58;101501.00;;;21.50
19644;BMP180;9970;-36.854;174.870;2022-12-26T10:04:32;101508.00;;;21.50
19644;BMP180;9970;-36.854;174.870;2022-12-26T10:07:32;101513.00;;;21.50
19644;BMP180;9970;-36.854;174.870;2022-12-26T10:10:26;101516.00;;;21.40
19644;BMP180;9970;-36.854;174.870;2022-12-26T10:15:58;101507.00;;;21.40
19644;BMP180;9970;-36.854;174.870;2022-12-26T10:21:41;101521.00;;;21.30
19644;BMP180;9970;-36.854;174.870;2022-12-26T10:24:14;101519.00;;;21.30
19644;BMP180;9970;-36.854;174.870;2022-12-26T10:26:55;101514.00;;;21.30
19644;BMP180;9970;-36.854;174.870;2022-12-26T10:29:33;101514.00;;;21.30
19644;BMP180;9970;-36.854;174.870;2022-12-26T10:32:10;101507.00;;;21.30
19644;BMP180;9970;-36.854;174.870;2022-12-26T10:34:49;101507.00;;;21.30
19644;BMP180;9970;-36.854;174.870;2022-12-26T10:37:36;101508.00;;;21.30
19644;BMP180;9970;-36.854;174.870;2022-12-26T10:42:55;101506.00;;;21.20
19644;BMP180;9970;-36.854;174.870;2022-12-26T10:45:47;101503.00;;;21.20
19644;BMP180;9970;-36.854;174.870;2022-12-26T10:48:18;101507.00;;;21.20
19644;BMP180;9970;-36.854;174.870;2022-12-26T10:50:52;101508.00;;;21.20
19644;BMP180;9970;-36.854;174.870;2022-12-26T10:53:25;101508.00;;;21.20
19644;BMP180;9970;-36.854;174.870;2022-12-26T10:55:59;101500.00;;;21.20
19644;BMP180;9970;-36.854;174.870;2022-12-26T10:58:33;101503.00;;;21.20
19644;BMP180;9970;-36.854;174.870;2022-12-26T11:01:31;101495.00;;;21.10
19644;BMP180;9970;-36.854;174.870;2022-12-26T11:04:13;101501.00;;;21.10
19644;BMP180;9970;-36.854;174.870;2022-12-26T11:06:41;101502.00;;;21.10
19644;BMP180;9970;-36.854;174.870;2022-12-26T11:12:02;101499.00;;;21.00
19644;BMP180;9970;-36.854;174.870;2022-12-26T11:14:40;101500.00;;;21.00
19644;BMP180;9970;-36.854;174.870;2022-12-26T11:17:25;101498.00;;;21.00
19644;BMP180;9970;-36.854;174.870;2022-12-26T11:20:21;101492.00;;;21.00
19644;BMP180;9970;-36.854;174.870;2022-12-26T11:22:55;101495.00;;;20.90
19644;BMP180;9970;-36.854;174.870;2022-12-26T11:25:29;101498.00;;;20.90
19644;BMP180;9970;-36.854;174.870;2022-12-26T11:28:17;101504.00;;;20.90
19644;BMP180;9970;-36.854;174.870;2022-12-26T11:30:40;101499.00;;;20.90
19644;BMP180;9970;-36.854;174.870;2022-12-26T11:33:30;101505.00;;;20.90
19644;BMP180;9970;-36.854;174.870;2022-12-26T11:36:22;101505.00;;;20.90
19644;BMP180;9970;-36.854;174.870;2022-12-26T11:39:05;101505.00;;;20.80
19644;BMP180;9970;-36.854;174.870;2022-12-26T11:41:38;101499.00;;;20.80
19644;BMP180;9970;-36.854;174.870;2022-12-26T11:44:24;101509.00;;;20.80
19644;BMP180;9970;-36.854;174.870;2022-12-26T11:46:59;101513.00;;;20.80
19644;BMP180;9970;-36.854;174.870;2022-12-26T11:52:38;101503.00;;;20.70
19644;BMP180;9970;-36.854;174.870;2022-12-26T11:55:31;101511.00;;;20.70
19644;BMP180;9970;-36.854;174.870;2022-12-26T12:03:32;101515.00;;;20.70
19644;BMP180;9970;-36.854;174.870;2022-12-26T12:09:18;101517.00;;;20.60
19644;BMP180;9970;-36.854;174.870;2022-12-26T12:12:02;101509.00;;;20.60
19644;BMP180;9970;-36.854;174.870;2022-12-26T12:14:58;101509.00;;;20.60
19644;BMP180;9970;-36.854;174.870;2022-12-26T12:18:00;101495.00;;;20.60
19644;BMP180;9970;-36.854;174.870;2022-12-26T12:20:57;101500.00;;;20.50
19644;BMP180;9970;-36.854;174.870;2022-12-26T12:29:50;101495.00;;;20.50
19644;BMP180;9970;-36.854;174.870;2022-12-26T12:43:13;101489.00;;;20.50
19644;BMP180;9970;-36.854;174.870;2022-12-26T12:48:35;101499.00;;;20.40
19644;BMP180;9970;-36.854;174.870;2022-12-26T12:51:27;101496.00;;;20.40
19644;BMP180;9970;-36.854;174.870;2022-12-26T13:05:18;101492.00;;;20.40
19644;BMP180;9970;-36.854;174.870;2022-12-26T13:07:53;101496.00;;;20.50
19644;BMP180;9970;-36.854;174.870;2022-12-26T13:10:35;101487.00;;;20.50
19644;BMP180;9970;-36.854;174.870;2022-12-26T13:13:16;101495.00;;;20.40
19644;BMP180;9970;-36.854;174.870;2022-12-26T13:15:46;101490.00;;;20.40
19644;BMP180;9970;-36.854;174.870;2022-12-26T13:18:26;101494.00;;;20.40
19644;BMP180;9970;-36.854;174.870;2022-12-26T13:21:03;101488.00;;;20.40
19644;BMP180;9970;-36.854;174.870;2022-12-26T13:23:39;101483.00;;;20.40
19644;BMP180;9970;-36.854;174.870;2022-12-26T13:26:41;101484.00;;;20.40
19644;BMP180;9970;-36.854;174.870;2022-12-26T13:29:58;101480.00;;;20.40
19644;BMP180;9970;-36.854;174.870;2022-12-26T13:31:53;101483.00;;;20.40
19644;BMP180;9970;-36.854;174.870;2022-12-26T13:34:26;101475.00;;;20.40
19644;BMP180;9970;-36.854;174.870;2022-12-26T13:36:59;101478.00;;;20.40
19644;BMP180;9970;-36.854;174.870;2022-12-26T13:39:36;101484.00;;;20.40
19644;BMP180;9970;-36.854;174.870;2022-12-26T13:45:38;101479.00;;;20.40
19644;BMP180;9970;-36.854;174.870;2022-12-26T13:48:45;101477.00;;;20.30
19644;BMP180;9970;-36.854;174.870;2022-12-26T13:51:00;101478.00;;;20.30
19644;BMP180;9970;-36.854;174.870;2022-12-26T13:53:38;101470.00;;;20.30
19644;BMP180;9970;-36.854;174.870;2022-12-26T13:59:23;101477.00;;;20.30
19644;BMP180;9970;-36.854;174.870;2022-12-26T14:05:11;101476.00;;;20.30
19644;BMP180;9970;-36.854;174.870;2022-12-26T14:08:18;101480.00;;;20.20
19644;BMP180;9970;-36.854;174.870;2022-12-26T14:16:47;101484.00;;;20.20
19644;BMP180;9970;-36.854;174.870;2022-12-26T14:19:44;101473.00;;;20.20
19644;BMP180;9970;-36.854;174.870;2022-12-26T14:22:23;101473.00;;;20.10
19644;BMP180;9970;-36.854;174.870;2022-12-26T14:25:01;101475.00;;;20.10
19644;BMP180;9970;-36.854;174.870;2022-12-26T14:27:39;101464.00;;;20.10
19644;BMP180;9970;-36.854;174.870;2022-12-26T14:30:33;101470.00;;;20.10
19644;BMP180;9970;-36.854;174.870;2022-12-26T14:33:29;101461.00;;;20.10
19644;BMP180;9970;-36.854;174.870;2022-12-26T14:41:24;101466.00;;;20.10
19644;BMP180;9970;-36.854;174.870;2022-12-26T14:44:17;101460.00;;;20.10
19644;BMP180;9970;-36.854;174.870;2022-12-26T14:54:59;101459.00;;;20.00
19644;BMP180;9970;-36.854;174.870;2022-12-26T14:57:44;101450.00;;;20.00
19644;BMP180;9970;-36.854;174.870;2022-12-26T15:00:26;101449.00;;;20.00
19644;BMP180;9970;-36.854;174.870;2022-12-26T15:05:38;101448.00;;;20.00
19644;BMP180;9970;-36.854;174.870;2022-12-26T15:20:02;101446.00;;;19.80
19644;BMP180;9970;-36.854;174.870;2022-12-26T15:23:13;101443.00;;;19.80
19644;BMP180;9970;-36.854;174.870;2022-12-26T15:37:00;101434.00;;;19.80
19644;BMP180;9970;-36.854;174.870;2022-12-26T15:42:32;101436.00;;;19.80
19644;BMP180;9970;-36.854;174.870;2022-12-26T15:45:34;101429.00;;;19.80
19644;BMP180;9970;-36.854;174.870;2022-12-26T15:48:12;101435.00;;;19.70
19644;BMP180;9970;-36.854;174.870;2022-12-26T15:53:59;101439.00;;;19.70
19644;BMP180;9970;-36.854;174.870;2022-12-26T15:59:38;101429.00;;;19.70
19644;BMP180;9970;-36.854;174.870;2022-12-26T16:08:04;101421.00;;;19.70
19644;BMP180;9970;-36.854;174.870;2022-12-26T16:10:40;101419.00;;;19.60
19644;BMP180;9970;-36.854;174.870;2022-12-26T16:13:17;101416.00;;;19.60
19644;BMP180;9970;-36.854;174.870;2022-12-26T16:15:57;101421.00;;;19.60
19644;BMP180;9970;-36.854;174.870;2022-12-26T16:18:31;101417.00;;;19.60
19644;BMP180;9970;-36.854;174.870;2022-12-26T16:21:05;101426.00;;;19.60
19644;BMP180;9970;-36.854;174.870;2022-12-26T16:23:56;101439.00;;;19.60
19644;BMP180;9970;-36.854;174.870;2022-12-26T16:26:32;101431.00;;;19.60
19644;BMP180;9970;-36.854;174.870;2022-12-26T16:29:06;101430.00;;;19.70
19644;BMP180;9970;-36.854;174.870;2022-12-26T16:31:40;101434.00;;;19.70
19644;BMP180;9970;-36.854;174.870;2022-12-26T16:34:20;101446.00;;;19.70
19644;BMP180;9970;-36.854;174.870;2022-12-26T16:36:53;101437.00;;;19.70
19644;BMP180;9970;-36.854;174.870;2022-12-26T16:39:26;101452.00;;;19.70
19644;BMP180;9970;-36.854;174.870;2022-12-26T16:42:08;101449.00;;;19.80
19644;BMP180;9970;-36.854;174.870;2022-12-26T16:44:41;101448.00;;;19.80
19644;BMP180;9970;-36.854;174.870;2022-12-26T16:47:15;101452.00;;;19.80
19644;BMP180;9970;-36.854;174.870;2022-12-26T16:49:48;101457.00;;;19.90
19644;BMP180;9970;-36.854;174.870;2022-12-26T16:52:38;101455.00;;;19.90
19644;BMP180;9970;-36.854;174.870;2022-12-26T16:58:28;101454.00;;;19.80
19644;BMP180;9970;-36.854;174.870;2022-12-26T17:00:39;101459.00;;;19.80
19644;BMP180;9970;-36.854;174.870;2022-12-26T17:03:19;101464.00;;;19.80
19644;BMP180;9970;-36.854;174.870;2022-12-26T17:05:47;101453.00;;;19.80
19644;BMP180;9970;-36.854;174.870;2022-12-26T17:08:20;101463.00;;;19.80
19644;BMP180;9970;-36.854;174.870;2022-12-26T17:10:54;101469.00;;;19.80
19644;BMP180;9970;-36.854;174.870;2022-12-26T17:13:27;101474.00;;;19.80
19644;BMP180;9970;-36.854;174.870;2022-12-26T17:16:03;101475.00;;;19.80
19644;BMP180;9970;-36.854;174.870;2022-12-26T17:21:27;101480.00;;;19.80
19644;BMP180;9970;-36.854;174.870;2022-12-26T17:26:49;101484.00;;;19.90
19644;BMP180;9970;-36.854;174.870;2022-12-26T17:32:37;101490.00;;;19.90